Time;durP1;ratioP1;P1;durP2;ratioP2;P2;SDS_P1;SDS_P2;PMS_P1;PMS_P2;Temp;Humidity;BMP_temperature;BMP_pressure;BME280_temperature;BME280_humidity;BME280_pressure;Samples;Min_cycle;Max_cycle;Signal;HPM_P1;HPM_P2
2023/01/24 00:00:50;;;;;;;19.25;12.68;;;2.30;99.90;;;0.73;85.32;103700.66;4849126;28;20040;-84
2023/01/24 00:03:20;;;;;;;20.08;12.80;;;2.30;99.90;;;0.72;85.42;103699.78;4859219;29;20504;-85
2023/01/24 00:06:39;;;;;;;17.98;12.27;;;2.30;99.90;;;0.73;85.68;103703.25;4871587;28;20054;-85
2023/01/24 00:09:27;;;;;;;19.00;12.95;;;2.30;99.90;;;0.69;86.01;103685.78;4858795;28;20033;-86
2023/01/24 00:12:02;;;;;;;17.17;12.25;;;2.30;99.90;;;0.73;86.39;103692.88;4873905;28;20071;-85
2023/01/24 00:14:28;;;;;;;22.43;13.60;;;2.30;99.90;;;0.62;86.29;103692.44;4873011;29;20039;-84
2023/01/24 00:17:10;;;;;;;19.52;12.43;;;2.20;99.90;;;0.63;86.47;103695.91;4844749;28;20051;-85
2023/01/24 00:19:51;;;;;;;17.60;11.90;;;2.20;99.90;;;0.54;86.03;103692.13;4808847;29;20037;-85
2023/01/24 00:22:40;;;;;;;19.58;12.00;;;;;;;0.54;86.29;103684.34;4871145;28;20034;-85
2023/01/24 00:25:09;;;;;;;21.23;13.43;;;2.20;99.90;;;0.51;86.40;103689.38;4862996;28;20039;-84
2023/01/24 00:27:35;;;;;;;21.75;13.52;;;2.20;99.90;;;0.48;86.60;103689.28;4886597;28;20094;-85
2023/01/24 00:30:10;;;;;;;21.40;13.27;;;;;;;0.32;87.27;103686.81;4895036;28;20415;-84
2023/01/24 00:32:39;;;;;;;23.55;13.38;;;;;;;0.15;88.15;103674.03;4920797;28;20071;-85
2023/01/24 00:35:30;;;;;;;21.35;13.45;;;;;;;0.31;87.90;103674.72;4915206;28;20032;-85
2023/01/24 00:37:58;;;;;;;18.40;11.13;;;2.00;99.90;;;0.32;87.57;103671.28;4888171;28;20154;-84
2023/01/24 00:40:49;;;;;;;22.42;13.18;;;;;;;0.34;86.91;103673.09;4827820;29;20048;-86
2023/01/24 00:43:44;;;;;;;18.05;11.95;;;2.00;99.90;;;0.31;86.84;103662.63;4944461;28;20128;-85
2023/01/24 00:46:09;;;;;;;18.10;12.13;;;2.00;99.90;;;0.35;86.05;103668.84;4896799;28;20035;-84
2023/01/24 00:48:50;;;;;;;20.90;12.68;;;2.00;99.90;;;0.36;86.03;103666.28;4926829;28;20042;-85
2023/01/24 00:51:18;;;;;;;22.05;13.20;;;2.00;99.90;;;0.39;86.30;103674.22;4890505;29;20138;-85
2023/01/24 00:53:53;;;;;;;20.63;13.45;;;2.00;99.90;;;0.40;86.67;103672.50;4923556;28;20039;-85
2023/01/24 00:56:19;;;;;;;18.58;12.10;;;2.00;99.90;;;0.29;86.36;103677.22;4929712;28;20051;-84
2023/01/24 00:58:48;;;;;;;18.95;13.10;;;2.00;99.90;;;0.34;86.92;103675.69;4853959;29;20110;-85
2023/01/24 01:01:22;;;;;;;21.33;13.20;;;2.00;99.90;;;0.41;87.04;103669.06;4901848;28;20125;-85
2023/01/24 01:03:59;;;;;;;18.85;11.88;;;2.00;99.90;;;0.35;87.39;103667.13;4926421;28;20074;-82
2023/01/24 01:07:16;;;;;;;21.95;13.80;;;2.00;99.90;;;0.34;87.59;103669.63;4929307;28;20047;-85
2023/01/24 01:09:42;;;;;;;19.40;11.98;;;2.00;99.90;;;0.35;87.44;103668.84;4886378;28;20099;-84
2023/01/24 01:12:32;;;;;;;20.00;12.02;;;;;;;0.30;87.15;103665.13;4819822;29;20391;-84
2023/01/24 01:15:01;;;;;;;20.98;13.10;;;2.00;99.90;;;0.36;87.28;103665.41;4871118;28;20038;-84
2023/01/24 01:17:41;;;;;;;19.00;12.27;;;;;;;0.35;86.99;103667.13;4873095;28;20107;-85
2023/01/24 01:20:19;;;;;;;19.70;13.07;;;2.00;99.90;;;0.38;86.70;103666.38;4928104;28;20062;-85
2023/01/24 01:23:12;;;;;;;;;;;;;;;;;;;;;
2023/01/24 01:25:39;;;;;;;21.92;12.70;;;2.00;99.90;;;0.32;86.24;103668.69;4963442;28;20122;-84
2023/01/24 01:28:19;;;;;;;19.13;12.73;;;2.00;99.90;;;0.34;86.15;103669.63;4900917;28;20467;-84
2023/01/24 01:31:30;;;;;;;20.00;12.88;;;2.00;99.90;;;0.37;86.55;103675.84;4928863;23;20047;-84
2023/01/24 01:33:59;;;;;;;22.10;13.13;;;;;;;0.39;86.55;103673.34;4871691;28;20031;-84
2023/01/24 01:36:50;;;;;;;22.35;13.77;;;;;;;0.43;86.38;103675.22;4886961;28;20044;-84
2023/01/24 01:39:19;;;;;;;18.77;12.70;;;;;;;0.42;86.05;103668.28;4883698;28;20070;-85
2023/01/24 01:41:51;;;;;;;20.65;12.63;;;;;;;0.46;86.68;103675.34;4864535;28;20040;-84
2023/01/24 01:45:00;;;;;;;20.15;13.07;;;2.10;99.90;;;0.51;86.92;103666.06;4889801;28;20036;-85
2023/01/24 01:47:50;;;;;;;18.50;12.15;;;2.10;99.90;;;0.52;87.15;103670.44;4852004;28;20118;-83
2023/01/24 01:50:58;;;;;;;18.27;12.05;;;;;;;0.56;87.24;103668.84;4850397;28;20054;-84
2023/01/24 01:53:59;;;;;;;24.52;13.70;;;2.10;99.90;;;0.55;87.19;103664.50;4854439;29;20123;-84
2023/01/24 01:56:40;;;;;;;19.38;13.38;;;;;;;0.58;87.33;103662.91;4790253;29;20041;-84
2023/01/24 01:59:45;;;;;;;;;;;;;;;;;;;;;
2023/01/24 02:02:12;;;;;;;22.75;13.10;;;2.10;99.90;;;0.50;87.08;103660.81;4899142;28;20520;-83
2023/01/24 02:04:52;;;;;;;20.38;13.73;;;;;;;0.53;87.01;103660.94;4855334;29;20055;-84
2023/01/24 02:08:16;;;;;;;;;;;;;;;;;;;;;
2023/01/24 02:16:01;;;;;;;21.02;13.25;;;2.10;99.90;;;0.48;87.68;103652.09;4904067;28;20102;-84
2023/01/24 02:16:38;;;;;;;19.60;12.95;;;2.10;99.90;;;0.50;87.47;103659.13;4921856;28;20792;-84
2023/01/24 02:19:20;;;;;;;22.25;12.40;;;;;;;0.54;87.63;103663.59;4865169;28;20039;-84
2023/01/24 02:22:29;;;;;;;20.75;13.48;;;2.10;99.90;;;0.50;87.72;103660.81;4806202;29;20066;-85
2023/01/24 02:25:58;;;;;;;20.58;13.07;;;2.10;99.90;;;0.46;87.49;103662.41;4871460;28;20917;-84
2023/01/24 02:28:44;;;;;;;;;;;;;;;;;;;;;
2023/01/24 02:31:29;;;;;;;19.27;12.90;;;2.00;99.90;;;0.38;87.66;103653.41;4945281;23;20038;-86
2023/01/24 02:33:58;;;;;;;19.73;13.18;;;;;;;0.33;87.31;103663.56;4927617;28;20136;-84
2023/01/24 02:36:48;;;;;;;;;;;;;;;;;;;;;
2023/01/24 02:39:29;;;;;;;20.13;13.43;;;;;;;0.34;87.92;103660.16;4896550;28;20889;-84
2023/01/24 02:42:22;;;;;;;20.05;13.80;;;2.00;99.90;;;0.24;87.79;103657.09;4912049;28;20047;-85
2023/01/24 02:45:11;;;;;;;22.17;14.20;;;1.90;99.90;;;0.25;88.13;103653.69;4877041;28;20044;-85
2023/01/24 02:48:00;;;;;;;20.48;13.73;;;2.00;99.90;;;0.32;88.18;103650.53;4864626;28;20048;-84
2023/01/24 02:53:52;;;;;;;;;;;;;;;;;;;;;
2023/01/24 02:59:11;;;;;;;24.27;15.40;;;1.90;99.90;;;0.31;87.98;103662.63;4894790;28;20074;-84
2023/01/24 03:01:40;;;;;;;21.98;13.65;;;;;;;0.33;88.12;103657.50;4888611;28;20511;-85
2023/01/24 03:04:09;;;;;;;20.48;13.57;;;;;;;0.38;88.02;103649.09;4887544;28;20043;-85
2023/01/24 03:06:40;;;;;;;23.77;13.88;;;2.00;99.90;;;0.38;88.46;103650.81;4883258;29;20583;-85
2023/01/24 03:09:20;;;;;;;22.35;14.02;;;1.90;99.90;;;0.37;88.14;103643.88;4891889;23;20052;-84
2023/01/24 03:11:51;;;;;;;24.95;13.45;;;2.00;99.90;;;0.40;87.84;103654.34;4887144;28;20097;-85
2023/01/24 03:35:11;;;;;;;22.40;14.75;;;2.00;99.90;;;0.43;88.55;103633.72;4844664;28;20034;-84
2023/01/24 03:40:35;;;;;;;23.63;14.32;;;2.00;99.90;;;0.37;89.08;103643.88;4929286;28;20068;-84
2023/01/24 03:43:01;;;;;;;23.65;14.52;;;2.00;99.90;;;0.43;88.78;103651.88;4903539;28;20042;-84
2023/01/24 03:45:58;;;;;;;22.98;14.35;;;;;;;0.38;89.19;103653.41;4888964;28;20058;-84
2023/01/24 03:48:36;;;;;;;;;;;;;;;0.36;89.37;103649.84;4893944;28;20050;-84
2023/01/24 03:53:58;;;;;;;20.02;13.85;;;2.00;99.90;;;0.36;88.93;103642.97;4886251;28;20231;-84
2023/01/24 03:56:50;;;;;;;19.58;12.68;;;2.00;99.90;;;0.28;89.22;103648.63;4869735;28;20601;-84
2023/01/24 03:59:19;;;;;;;23.95;13.82;;;;;;;0.30;89.02;103641.81;4867199;28;20055;-84
2023/01/24 04:01:51;;;;;;;24.70;14.50;;;;;;;0.34;88.93;103643.72;4890674;28;20032;-83
2023/01/24 04:04:19;;;;;;;21.65;14.07;;;;;;;0.38;88.90;103643.03;4831755;29;20047;-84
2023/01/24 04:07:10;;;;;;;19.08;13.55;;;;;;;0.36;89.03;103642.97;4865018;29;20048;-84
2023/01/24 04:09:41;;;;;;;21.92;14.30;;;1.80;99.90;;;0.34;88.81;103642.00;4889986;23;20050;-83
2023/01/24 04:12:16;;;;;;;22.98;14.23;;;2.00;99.90;;;0.36;88.80;103634.31;4878384;28;20500;-83
2023/01/24 04:14:42;;;;;;;25.35;14.40;;;2.00;99.90;;;0.38;88.92;103636.13;4878152;28;20064;-83
2023/01/24 04:17:09;;;;;;;23.13;14.25;;;;;;;0.40;88.73;103647.44;4872813;28;20057;-84
2023/01/24 04:19:44;;;;;;;20.58;14.75;;;;;;;0.43;88.60;103651.88;4896077;28;20043;-84
2023/01/24 04:22:11;;;;;;;20.48;13.20;;;;;;;0.46;88.80;103645.97;4875995;28;20045;-83
2023/01/24 04:24:40;;;;;;;25.65;14.02;;;2.10;99.90;;;0.47;88.74;103651.19;4926617;28;20038;-84
2023/01/24 04:27:20;;;;;;;26.40;15.27;;;2.10;99.90;;;0.45;88.74;103651.94;4875654;28;20034;-83
2023/01/24 04:29:51;;;;;;;21.13;14.20;;;2.00;99.90;;;0.38;88.79;103651.69;4864857;23;20097;-83
2023/01/24 04:32:20;;;;;;;19.70;13.52;;;2.00;99.90;;;0.40;88.65;103659.53;4918661;28;20070;-83
2023/01/24 04:35:11;;;;;;;25.95;14.07;;;;;;;0.44;88.55;103666.63;4887733;28;20040;-83
2023/01/24 04:37:39;;;;;;;20.50;13.55;;;2.00;99.90;;;0.32;88.83;103661.78;4876944;28;20039;-84
2023/01/24 04:40:17;;;;;;;22.92;14.30;;;2.00;99.90;;;0.36;88.81;103662.81;4851725;29;20104;-83
2023/01/24 04:42:43;;;;;;;20.95;14.23;;;2.00;99.90;;;0.38;88.90;103658.59;4830165;28;20055;-84
2023/01/24 04:45:11;;;;;;;21.83;14.75;;;2.00;99.90;;;0.42;88.33;103657.91;4895866;28;20040;-83
2023/01/24 04:48:00;;;;;;;21.63;15.10;;;2.00;99.90;;;0.34;88.26;103659.28;4848113;28;20034;-84
2023/01/24 04:50:29;;;;;;;21.42;12.57;;;;;;;0.14;88.57;103655.81;4839259;28;20396;-85
2023/01/24 04:53:24;;;;;;;14.90;10.48;;;1.90;99.90;;;0.16;88.20;103652.47;4892428;28;20028;-83
2023/01/24 04:55:51;;;;;;;14.98;9.90;;;;;;;0.14;87.72;103659.28;4910306;29;20502;-82
2023/01/24 04:58:24;;;;;;;16.92;10.25;;;;;;;0.23;87.58;103660.53;4913524;28;20139;-84
2023/01/24 05:00:50;;;;;;;15.40;10.40;;;1.90;99.90;;;0.22;87.38;103658.72;4845132;28;20039;-84
2023/01/24 05:03:18;;;;;;;20.88;13.82;;;;;;;0.14;88.08;103651.53;4886107;28;20078;-84
2023/01/24 05:05:51;;;;;;;21.27;12.80;;;1.90;99.90;;;0.23;87.80;103666.59;4899192;28;20086;-84
2023/01/24 05:08:18;;;;;;;18.92;13.27;;;1.90;99.90;;;0.30;88.06;103659.97;4852942;28;20140;-83
2023/01/24 05:10:43;;;;;;;19.92;13.15;;;2.00;99.90;;;0.34;87.50;103661.88;4878129;29;20038;-84
2023/01/24 05:13:09;;;;;;;19.20;12.65;;;1.90;99.90;;;0.28;87.24;103654.72;4856921;28;20036;-83
2023/01/24 05:15:45;;;;;;;;;;;;;;;;;;;;;
2023/01/24 05:18:11;;;;;;;11.52;7.65;;;1.90;99.90;;;0.28;86.68;103669.38;4854538;29;20910;-83
2023/01/24 05:20:49;;;;;;;12.63;8.90;;;;;;;0.25;86.34;103661.47;4819517;29;20146;-84
2023/01/24 05:23:18;;;;;;;14.23;8.45;;;1.90;99.90;;;0.29;86.28;103655.59;4877678;28;20045;-84
2023/01/24 05:25:43;;;;;;;10.43;6.85;;;1.90;99.90;;;0.23;87.00;103665.72;4885574;28;20046;-84
2023/01/24 05:28:38;;;;;;;9.93;6.40;;;1.90;99.90;;;0.22;87.13;103669.09;4871432;28;21030;-83
2023/01/24 05:31:11;;;;;;;14.43;7.43;;;1.90;99.90;;;0.25;86.60;103666.66;4883528;28;20051;-85
2023/01/24 05:33:40;;;;;;;10.98;7.28;;;1.90;99.90;;;0.18;86.30;103663.78;4899873;28;20077;-84
2023/01/24 05:36:21;;;;;;;12.85;8.38;;;1.80;99.90;;;0.05;86.11;103661.50;4851041;28;20039;-84
2023/01/24 05:38:58;;;;;;;14.40;9.60;;;1.80;99.90;;;0.15;86.89;103666.28;4940456;28;20032;-84
2023/01/24 05:41:24;;;;;;;12.90;8.70;;;1.90;99.90;;;0.30;86.40;103672.91;4845935;28;20067;-83
2023/01/24 05:43:50;;;;;;;16.58;10.13;;;1.90;99.90;;;0.36;86.70;103678.38;4852121;28;20491;-83
2023/01/24 05:46:28;;;;;;;16.73;11.07;;;2.00;99.90;;;0.36;86.42;103673.19;4869549;28;20046;-84
2023/01/24 05:48:53;;;;;;;19.02;10.68;;;2.00;99.90;;;0.44;86.70;103674.41;4840405;29;20613;-83
2023/01/24 05:51:20;;;;;;;16.40;11.10;;;2.00;99.90;;;0.47;86.70;103682.28;4846209;28;20034;-83
2023/01/24 05:53:51;;;;;;;15.40;9.98;;;2.10;99.90;;;0.47;86.66;103677.13;4900286;28;20094;-84
2023/01/24 05:56:20;;;;;;;15.75;11.02;;;;;;;0.50;86.14;103677.25;4870592;28;20038;-84
2023/01/24 05:58:47;;;;;;;16.73;11.40;;;2.10;99.90;;;0.52;86.77;103670.44;4887708;28;20079;-83
2023/01/24 06:01:26;;;;;;;18.35;11.27;;;;;;;0.56;86.68;103672.34;4912460;28;20109;-83
2023/01/24 06:03:58;;;;;;;18.92;12.13;;;;;;;0.59;86.34;103680.22;4865916;29;20058;-83
2023/01/24 06:06:25;;;;;;;18.95;11.38;;;2.20;99.90;;;0.60;86.74;103673.34;4866450;28;20032;-84
2023/01/24 06:08:51;;;;;;;16.10;11.25;;;;;;;0.61;86.46;103673.41;4826204;28;20042;-83
2023/01/24 06:11:29;;;;;;;16.83;9.48;;;2.60;99.90;;;0.64;86.50;103679.53;4907273;28;20050;-83
2023/01/24 06:13:58;;;;;;;13.98;9.48;;;2.20;99.90;;;0.63;86.47;103683.84;4892097;28;20032;-84
2023/01/24 06:16:32;;;;;;;12.70;7.63;;;;;;;0.61;86.53;103683.78;4843578;28;20066;-83
2023/01/24 06:18:58;;;;;;;14.15;9.68;;;2.60;99.90;;;0.47;86.04;103687.47;4884135;28;20057;-83
2023/01/24 06:21:51;;;;;;;13.68;10.73;;;2.00;99.90;;;0.22;87.09;103676.88;4924335;28;20120;-83
2023/01/24 06:24:23;;;;;;;16.45;10.90;;;2.00;99.90;;;0.34;86.65;103688.66;4910583;28;20037;-83
2023/01/24 06:27:00;;;;;;;16.20;11.00;;;2.00;99.90;;;0.40;87.03;103686.34;4906421;28;20102;-85
2023/01/24 06:29:27;;;;;;;22.35;11.95;;;2.00;99.90;;;0.37;86.95;103683.63;4877870;28;20051;-84
2023/01/24 06:32:28;;;;;;;12.27;9.25;;;2.00;99.90;;;0.41;87.03;103684.63;4892503;28;20047;-83
2023/01/24 06:35:36;;;;;;;14.90;9.55;;;2.00;99.90;;;0.32;86.55;103679.94;4866318;28;20734;-83
2023/01/24 06:38:22;;;;;;;12.63;8.98;;;1.90;99.90;;;0.28;86.32;103695.28;4895759;28;20042;-84
2023/01/24 06:41:02;;;;;;;13.50;9.13;;;1.90;99.90;;;0.27;85.76;103694.41;4877162;28;20035;-84
2023/01/24 06:43:31;;;;;;;14.35;8.68;;;1.90;99.90;;;0.17;85.70;103700.00;4853778;29;20054;-84
2023/01/24 06:45:57;;;;;;;15.38;9.82;;;1.90;99.90;;;0.25;86.05;103695.16;4883695;28;20039;-83
2023/01/24 06:48:37;;;;;;;17.48;12.13;;;;;;;0.30;86.05;103697.16;4882489;28;20401;-84
2023/01/24 06:51:27;;;;;;;16.75;11.52;;;2.00;99.90;;;0.33;85.93;103693.81;4899508;28;20035;-83
2023/01/24 06:53:50;;;;;;;16.55;11.27;;;2.00;99.90;;;0.37;85.79;103700.91;4897942;28;20028;-83
2023/01/24 06:56:18;;;;;;;15.18;10.82;;;;;;;0.44;85.43;103708.09;4885803;28;20131;-85
2023/01/24 06:58:44;;;;;;;15.95;11.35;;;2.10;99.90;;;0.48;85.48;103699.66;4880389;28;20047;-83
2023/01/24 07:01:10;;;;;;;15.27;10.05;;;2.10;99.90;;;0.51;85.46;103704.94;4895923;28;20031;-83
2023/01/24 07:03:47;;;;;;;16.63;9.50;;;2.10;99.90;;;0.55;85.12;103706.84;4857109;28;20140;-84
2023/01/24 07:06:21;;;;;;;18.05;10.85;;;2.10;99.90;;;0.57;84.89;103709.53;4900284;28;20027;-83
2023/01/24 07:08:49;;;;;;;16.35;10.85;;;2.10;99.90;;;0.59;84.96;103715.66;4886877;28;20111;-84
2023/01/24 07:11:15;;;;;;;20.17;11.60;;;2.20;99.90;;;0.61;84.98;103712.31;4903494;28;20039;-84
2023/01/24 07:13:41;;;;;;;16.60;10.05;;;2.20;99.90;;;0.60;84.94;103702.78;4850665;29;20039;-83
2023/01/24 07:16:31;;;;;;;13.23;9.10;;;2.20;99.90;;;0.61;85.22;103714.91;4898718;28;20045;-84
2023/01/24 07:19:00;;;;;;;17.45;11.52;;;2.20;99.90;;;0.51;85.48;103706.66;4917644;28;20046;-84
2023/01/24 07:21:26;;;;;;;15.77;10.95;;;2.20;99.90;;;0.43;85.92;103710.63;4841468;29;20044;-85
2023/01/24 07:23:59;;;;;;;17.30;10.43;;;2.10;99.90;;;0.28;86.40;103705.66;4858582;28;20047;-83
2023/01/24 07:26:31;;;;;;;17.75;11.45;;;2.00;99.90;;;0.35;86.17;103705.13;4902744;28;20670;-83
2023/01/24 07:29:19;;;;;;;24.98;13.32;;;2.00;99.90;;;0.42;86.24;103708.88;4885908;28;20117;-84
2023/01/24 07:32:01;;;;;;;16.20;10.48;;;;;;;0.43;86.03;103708.91;4870114;28;20410;-84
2023/01/24 07:34:29;;;;;;;15.63;11.23;;;;;;;0.38;86.31;103716.50;4868330;28;20038;-83
2023/01/24 07:37:02;;;;;;;27.63;15.10;;;;;;;0.46;86.56;103716.84;4885732;28;20035;-83
2023/01/24 07:39:31;;;;;;;21.95;13.75;;;;;;;0.54;86.19;103735.31;4899367;28;20040;-84
2023/01/24 07:42:09;;;;;;;23.77;14.25;;;2.10;99.90;;;0.60;86.10;103727.78;4883235;28;20036;-83
2023/01/24 07:44:37;;;;;;;18.83;13.10;;;2.20;99.90;;;0.65;86.30;103723.69;4846562;29;20072;-85
2023/01/24 07:47:09;;;;;;;14.90;9.95;;;;;;;0.68;85.93;103728.13;4901295;28;20027;-85
2023/01/24 07:49:43;;;;;;;22.45;14.85;;;;;;;0.67;86.02;103731.53;4871757;28;20031;-85
2023/01/24 07:52:19;;;;;;;16.17;11.13;;;;;;;0.67;85.62;103731.53;4875243;28;20095;-84
2023/01/24 07:54:46;;;;;;;21.83;11.93;;;;;;;0.64;85.55;103723.63;4897115;28;20106;-85
2023/01/24 07:57:17;;;;;;;17.25;12.05;;;2.20;99.90;;;0.66;86.04;103730.66;4893408;28;20075;-83
2023/01/24 07:59:49;;;;;;;16.95;12.40;;;2.30;99.90;;;0.70;85.80;103731.69;4859563;29;20036;-84
2023/01/24 08:02:27;;;;;;;21.67;12.43;;;2.20;99.90;;;0.69;85.71;103740.25;4845026;29;20036;-84
2023/01/24 08:04:53;;;;;;;18.23;11.60;;;2.20;99.90;;;0.68;86.18;103743.69;4875129;29;20055;-84
2023/01/24 08:07:29;;;;;;;23.63;11.00;;;;;;;0.71;86.38;103743.81;4850366;28;20547;-83
2023/01/24 08:09:54;;;;;;;;;;;2.10;99.90;;;0.66;86.19;103753.09;4875483;28;20037;-84
2023/01/24 08:12:21;;;;;;;17.90;9.32;;;2.20;99.90;;;0.47;85.75;103741.94;4876505;29;19918;-84
2023/01/24 08:14:47;;;;;;;15.32;8.63;;;2.20;99.90;;;0.51;85.73;103745.56;4901011;28;20042;-85
2023/01/24 08:17:19;;;;;;;14.52;9.55;;;2.20;99.90;;;0.67;86.06;103752.28;4905836;28;20039;-84
2023/01/24 08:19:45;;;;;;;16.30;9.65;;;2.30;99.90;;;0.74;86.28;103754.34;4846339;28;20420;-84
2023/01/24 08:22:10;;;;;;;16.05;10.38;;;2.30;99.90;;;0.82;86.07;103755.50;4837960;29;20047;-83
2023/01/24 08:24:37;;;;;;;15.60;8.77;;;;;;;0.89;85.83;103760.16;4835766;29;20109;-84
2023/01/24 08:27:12;;;;;;;13.48;8.32;;;2.40;99.90;;;0.97;86.05;103769.16;4847207;28;20680;-84
2023/01/24 08:29:38;;;;;;;9.27;6.60;;;2.50;99.90;;;0.98;85.97;103768.31;4856408;28;20041;-83
2023/01/24 08:32:04;;;;;;;13.32;9.02;;;2.50;99.90;;;0.96;85.63;103772.56;4844274;29;20396;-84
2023/01/24 08:34:41;;;;;;;13.50;9.05;;;2.40;99.90;;;0.84;85.95;103771.16;4856383;28;20031;-83
2023/01/24 08:37:07;;;;;;;15.70;9.45;;;2.40;99.90;;;0.88;86.59;103780.84;4844404;28;20051;-83
2023/01/24 08:39:33;;;;;;;13.63;9.75;;;2.40;99.90;;;0.93;86.88;103772.44;4867962;29;20114;-83
2023/01/24 08:41:59;;;;;;;15.85;10.98;;;;;;;0.97;86.73;103776.03;4902874;29;20115;-83
2023/01/24 08:44:36;;;;;;;17.42;12.23;;;2.50;99.90;;;1.04;86.05;103775.50;4891651;28;20039;-83
2023/01/24 08:47:02;;;;;;;15.15;10.48;;;2.50;99.90;;;1.04;86.22;103778.09;4897901;28;20486;-83
2023/01/24 08:49:40;;;;;;;13.23;9.15;;;2.60;99.90;;;1.08;85.79;103771.28;4920921;29;20067;-83
2023/01/24 08:52:35;;;;;;;12.88;7.65;;;2.60;99.90;;;1.08;85.43;103779.09;4893570;28;20039;-84
2023/01/24 08:55:01;;;;;;;10.90;7.25;;;;;;;0.93;84.52;103774.13;4867479;28;20572;-84
2023/01/24 08:57:36;;;;;;;8.48;5.82;;;;;;;1.03;84.32;103778.91;4886352;28;20107;-84
2023/01/24 09:00:03;;;;;;;8.80;5.70;;;2.60;99.90;;;1.01;83.50;103770.16;4858622;29;20607;-84
2023/01/24 09:02:39;;;;;;;10.75;7.88;;;2.60;99.90;;;1.09;83.05;103773.97;4880832;28;20390;-84
2023/01/24 09:05:09;;;;;;;8.85;5.85;;;;;;;1.02;82.68;103777.13;4937899;28;20034;-86
2023/01/24 09:07:58;;;;;;;9.77;6.22;;;2.60;99.90;;;0.94;82.16;103775.91;4926348;28;20749;-86
2023/01/24 09:10:31;;;;;;;8.88;6.55;;;;;;;0.88;81.70;103773.94;4895394;28;20035;-84
2023/01/24 09:13:11;;;;;;;10.52;5.88;;;2.50;99.90;;;0.79;81.56;103771.84;4924430;28;20040;-84
2023/01/24 09:15:43;;;;;;;14.18;8.65;;;;;;;0.89;81.53;103775.72;4892786;28;20035;-84
2023/01/24 09:18:10;;;;;;;12.13;7.90;;;;;;;0.99;81.58;103777.91;4891432;28;21106;-84
2023/01/24 09:20:39;;;;;;;11.68;8.88;;;;;;;1.00;81.46;103782.25;4912588;28;20031;-84
2023/01/24 09:23:14;;;;;;;10.38;7.20;;;;;;;1.05;81.64;103787.63;4924391;28;20063;-85
2023/01/24 09:25:52;;;;;;;7.97;6.00;;;;;;;1.02;81.17;103791.00;4867063;29;20057;-84
2023/01/24 09:28:21;;;;;;;10.38;6.10;;;;;;;1.12;81.57;103792.25;4859026;28;20991;-86
2023/01/24 09:31:13;;;;;;;9.98;5.43;;;2.70;99.90;;;1.22;81.31;103790.94;4928919;28;20783;-83
2023/01/24 09:33:42;;;;;;;10.00;6.80;;;2.80;99.90;;;1.34;81.45;103798.31;4851522;29;20047;-84
2023/01/24 09:37:01;;;;;;;10.55;6.20;;;2.80;99.90;;;1.20;80.83;103787.38;4899584;28;20546;-84
2023/01/24 09:40:02;;;;;;;11.75;6.75;;;2.80;99.90;;;1.28;80.05;103780.81;4891795;28;20043;-83
2023/01/24 09:43:33;;;;;;;10.30;6.40;;;2.80;99.90;;;1.10;79.76;103780.03;4882981;28;20041;-84
2023/01/24 09:46:53;;;;;;;;;;;;;;;;;;;;;
2023/01/24 09:50:41;;;;;;;12.30;7.97;;;2.80;99.90;;;1.22;80.76;103775.34;4810590;29;21055;-84
2023/01/24 09:54:34;;;;;;;;;;;;;;;;;;;;;
2023/01/24 09:57:37;;;;;;;15.55;10.32;;;3.00;99.90;;;1.46;80.56;103779.78;4719734;30;20054;-83
2023/01/24 10:00:35;;;;;;;12.05;7.72;;;3.00;99.90;;;1.56;80.48;103790.59;4698793;30;20033;-83
2023/01/24 10:03:33;;;;;;;11.20;7.22;;;;;;;1.60;80.23;103779.50;4739371;29;20041;-83
2023/01/24 10:06:30;;;;;;;10.43;6.25;;;;;;;1.50;79.85;103781.66;4753203;29;20119;-84
2023/01/24 10:09:20;;;;;;;8.88;5.60;;;;;;;1.48;78.91;103781.59;4793610;29;21459;-84
2023/01/24 10:12:21;;;;;;;11.40;7.50;;;3.10;99.90;;;1.55;78.62;103786.19;4796596;29;20050;-83
2023/01/24 10:15:32;;;;;;;8.25;6.05;;;3.10;99.90;;;1.51;79.09;103775.63;4914144;29;20035;-84
2023/01/24 10:19:02;;;;;;;10.23;7.40;;;3.10;99.90;;;1.54;80.18;103774.06;4826095;29;20106;-85
2023/01/24 10:22:12;;;;;;;10.52;6.90;;;;;;;1.58;80.53;103775.06;4851079;29;20091;-84
2023/01/24 10:25:21;;;;;;;16.15;7.28;;;3.10;99.90;;;1.47;80.46;103768.53;4855067;29;20091;-84
2023/01/24 10:32:03;;;;;;;13.55;8.27;;;3.10;99.90;;;1.62;80.39;103774.34;4856676;29;20127;-83
2023/01/24 10:35:02;;;;;;;11.88;7.55;;;3.20;99.90;;;1.72;80.50;103768.69;4873405;28;20061;-83
2023/01/24 10:37:55;;;;;;;10.90;6.47;;;;;;;1.68;80.33;103763.31;4853709;28;20413;-82
2023/01/24 10:40:33;;;;;;;10.75;6.47;;;;;;;1.60;80.61;103758.72;4942646;28;20035;-83
2023/01/24 10:43:34;;;;;;;8.25;6.05;;;3.10;99.90;;;1.55;80.24;103754.16;4883412;29;20048;-83
2023/01/24 10:47:02;;;;;;;12.75;6.65;;;3.10;99.90;;;1.58;80.33;103757.78;4874292;28;20444;-83
2023/01/24 10:49:55;;;;;;;10.52;6.60;;;;;;;1.26;79.76;103751.31;4924973;28;20515;-84
2023/01/24 10:52:22;;;;;;;9.93;6.57;;;2.90;99.90;;;1.13;79.89;103754.22;4855588;28;20054;-84
2023/01/24 10:55:29;;;;;;;16.48;6.60;;;2.80;99.90;;;0.95;80.22;103741.34;4874899;29;20036;-84
2023/01/24 10:58:14;;;;;;;10.50;6.85;;;;;;;0.95;80.36;103744.84;4860266;29;20041;-84
2023/01/24 11:01:23;;;;;;;10.23;6.30;;;;;;;0.91;81.33;103747.28;4823056;29;20041;-83
2023/01/24 11:07:41;;;;;;;9.55;6.72;;;2.60;99.90;;;0.75;81.67;103746.59;4850645;29;20048;-85
2023/01/24 11:10:30;;;;;;;11.73;6.72;;;;;;;0.77;81.84;103754.44;4758791;29;20031;-85
2023/01/24 11:13:54;;;;;;;9.57;6.00;;;;;;;0.82;81.36;103753.84;4807689;29;20121;-84
2023/01/24 11:17:05;;;;;;;12.23;7.35;;;2.60;99.90;;;1.06;81.58;103754.78;4829170;29;20430;-83
2023/01/24 11:23:11;;;;;;;11.45;6.10;;;;;;;0.87;81.10;103751.44;4836871;29;20470;-85
2023/01/24 11:26:22;;;;;;;10.50;7.55;;;;;;;1.05;80.32;103753.00;4825175;29;20033;-83
2023/01/24 11:29:41;;;;;;;9.52;7.35;;;2.80;99.90;;;1.27;80.17;103755.66;4856410;29;20062;-84
2023/01/24 11:32:50;;;;;;;13.90;7.20;;;;;;;1.47;79.88;103755.56;4692849;29;20441;-84
2023/01/24 11:35:49;;;;;;;10.75;7.43;;;;;;;1.61;79.80;103752.69;4704052;30;20135;-84
2023/01/24 11:38:42;;;;;;;9.70;6.93;;;;;;;1.78;79.25;103737.75;4727221;29;20059;-83
2023/01/24 11:42:08;;;;;;;10.15;7.40;;;3.30;99.90;;;1.99;79.15;103742.88;4709290;29;20042;-85
2023/01/24 11:44:51;;;;;;;10.02;6.85;;;3.40;99.90;;;2.03;79.10;103739.56;4792112;29;20054;-83
2023/01/24 11:48:16;;;;;;;;;;;;;;;;;;;;;
2023/01/24 11:51:50;;;;;;;10.70;6.43;;;3.60;99.90;;;2.13;78.11;103725.19;4719438;30;20556;-83
2023/01/24 12:01:19;;;;;;;11.95;6.90;;;3.70;99.90;;;2.14;77.30;103711.38;4778602;29;20100;-83
2023/01/24 12:04:53;;;;;;;11.20;7.50;;;0.40;99.90;;;1.96;77.49;103700.28;4811465;29;20040;-84
2023/01/24 12:08:19;;;;;;;;;;;;;;;;;;;;;
2023/01/24 12:14:23;;;;;;;9.35;6.28;;;;;;;2.10;77.31;103701.69;4860127;29;20036;-83
2023/01/24 12:21:23;;;;;;;12.32;6.65;;;3.70;99.90;;;2.22;76.35;103688.22;4872290;23;20187;-83
2023/01/24 12:24:45;;;;;;;;;;;;;;;;;;;;;
2023/01/24 12:28:14;;;;;;;11.10;7.15;;;3.80;99.90;;;2.26;76.92;103692.72;4862193;28;20366;-85
2023/01/24 12:30:43;;;;;;;9.00;6.82;;;3.80;99.90;;;2.24;76.47;103687.44;4834338;29;20047;-83
2023/01/24 12:33:39;;;;;;;9.65;6.95;;;3.70;99.90;;;2.28;77.16;103680.66;4848384;29;20474;-84
2023/01/24 12:36:51;;;;;;;9.18;6.68;;;3.70;99.90;;;2.21;76.94;103674.34;4859329;29;20044;-83
2023/01/24 12:39:51;;;;;;;9.38;7.00;;;;;;;2.19;76.47;103678.63;4855562;23;20121;-83
2023/01/24 12:43:32;;;;;;;9.70;6.88;;;3.70;99.90;;;2.19;77.15;103678.63;4860581;28;20063;-84
2023/01/24 12:54:22;;;;;;;9.27;6.63;;;3.80;99.90;;;2.34;76.88;103669.59;4785518;29;20049;-83
2023/01/24 12:57:35;;;;;;;13.05;7.65;;;3.80;99.90;;;2.30;76.84;103670.31;4806054;29;20034;-84
2023/01/24 13:00:02;;;;;;;8.80;6.70;;;3.80;99.90;;;2.32;77.01;103672.13;4841724;23;20042;-83
2023/01/24 13:03:31;;;;;;;12.00;8.75;;;3.80;99.90;;;2.33;77.05;103673.00;4908343;28;20034;-85
2023/01/24 13:06:26;;;;;;;12.20;8.00;;;3.80;99.90;;;2.31;77.06;103672.06;4905317;28;20036;-84
2023/01/24 13:13:54;;;;;;;12.38;7.72;;;3.80;99.90;;;2.19;76.81;103663.00;4833178;29;20047;-83